Helena, GA

09:21 EST le 23 novembre 2014 (GMT -0500)
SW of Chauncey | Change Station
CLOSE
Current Station
Stations météorologiques personnelles
Location: Chauncey, GA
Altitude: 367 ft
Stations météo à proximité

Alt. 367 ft 32.08 °N, 83.10 °W | Updated 7 seconds ago

Couvert
Couvert
60.6 ° F
Paraît 60.6 ° F
N
6.2
Vent Variable Vent de SSE
Gusts 6.4 mph

Aujourd'hui
Haut(e) -- | Bas -- ° F
--% Risque de précip.
Hier
Haut(e) -- | Bas -- ° F
Precip. -- pouce
7:07 AM 5:28 PM
Nouvelle lune, 1% visible
Pression 30.02 pouce
Visibilité 7.0 Miles terrestres
Nuages Couvert 500 ft
Point de rosée 59 ° F
Humidité 93%
Précipitations 0.00 pouce
Profondeur de la couche neigeuse Non disponible.
UV 1 sur 12
Pollen .30 sur 12
Qualité de l'air Non disponible.
Flu Activity Non disponible.
METAR KEZM 231415Z AUTO 12008G18KT 7SM -RA OVC005 16/16 A3002 RMK AO2 T01630163

More Conditions Fewer Conditions

Pression 30.02 pouce
Visibilité 7.0 Miles terrestres
Nuages Couvert 500 ft
Point de rosée 59 ° F
Humidité 93%
Précipitations 0.00 pouce
Profondeur de la couche neigeuse Non disponible.
UV 1 sur 12
Pollen .30 sur 12
Qualité de l'air Non disponible.
Flu Activity Non disponible.
METAR KEZM 231415Z AUTO 12008G18KT 7SM -RA OVC005 16/16 A3002 RMK AO2 T01630163

More Conditions Fewer Conditions

10-Day Weather Forecast

Almanac

Astronomie

Nov. 23, 2014 Lever Coucher
Temps réel
Crépuscule civil
Crépuscule nautique
Crépuscule astronomique
Lune
Durée de lumière visible
Longueur du jour
Tomorrow will be .
, % of the Moon is Illuminated

Extrêmes aujourd'hui

State Highs State Lows

Community

WunderPhotos

Upload Photos

1,773,073 Photos téléchargées !

WunderBlogs® & News

Nearby

Qualité de l'air

  Qualité de l'air Indice de la qualité de l'air Polluant
Not available.

Épaisseur de neige

Station Depth Altitude

Activité sismique

Ville Distance Mag. Time & Date
Minimum magnitude displayed is 2.5.

Températures des eaux côtières

Lieu Température

Stations météo à proximité